Time;durP1;ratioP1;P1;durP2;ratioP2;P2;SDS_P1;SDS_P2;PMS_P1;PMS_P2;Temp;Humidity;BMP_temperature;BMP_pressure;BME280_temperature;BME280_humidity;BME280_pressure;Samples;Min_cycle;Max_cycle;Signal;HPM_P1;HPM_P2
2021/07/17 00:00:44;;;;;;;21.83;12.65;;;;;;;24.89;57.87;98909.00;5049057;28;20076;-67
2021/07/17 00:03:10;;;;;;;20.90;12.10;;;;;;;24.85;57.66;98908.72;5033211;28;20119;-68
2021/07/17 00:05:36;;;;;;;21.20;11.90;;;;;;;24.83;58.12;98910.09;5050942;28;20127;-68
2021/07/17 00:08:02;;;;;;;20.35;12.02;;;;;;;24.83;58.09;98905.44;5049663;28;20558;-68
2021/07/17 00:10:51;;;;;;;17.85;12.40;;;;;;;24.82;58.23;98906.53;5049777;28;20382;-68
2021/07/17 00:13:18;;;;;;;26.52;12.65;;;;;;;24.71;58.33;98895.91;5049240;28;20136;-69
2021/07/17 00:15:45;;;;;;;17.00;12.15;;;;;;;24.76;58.60;98902.19;5049675;28;20618;-66
2021/07/17 00:18:14;;;;;;;23.95;14.60;;;;;;;24.78;58.74;98905.47;5049588;28;20110;-67
2021/07/17 00:20:41;;;;;;;24.05;12.98;;;;;;;24.75;58.46;98899.72;5049697;28;20053;-68
2021/07/17 00:23:07;;;;;;;27.65;12.95;;;;;;;24.71;58.98;98902.16;5049506;28;20041;-66
2021/07/17 00:25:33;;;;;;;21.20;12.95;;;;;;;24.70;59.01;98905.13;5050865;28;20106;-67
2021/07/17 00:27:59;;;;;;;20.98;13.40;;;;;;;24.64;59.00;98893.44;5050743;28;20045;-67
2021/07/17 00:30:25;;;;;;;19.77;12.30;;;;;;;24.52;58.96;98884.69;5050619;28;20041;-69
2021/07/17 00:33:02;;;;;;;20.50;11.45;;;;;;;24.63;59.17;98899.91;5049729;28;20063;-68
2021/07/17 00:35:27;;;;;;;26.23;11.88;;;;;;;24.61;58.79;98909.44;5050998;28;20068;-68
2021/07/17 00:37:53;;;;;;;25.80;13.68;;;;;;;24.58;59.30;98907.25;5049728;28;20041;-68
2021/07/17 00:40:22;;;;;;;33.40;15.05;;;;;;;24.55;59.28;98911.31;5050494;28;20049;-67
2021/07/17 00:42:49;;;;;;;26.40;13.88;;;;;;;24.54;59.57;98911.59;5049446;28;20037;-66
2021/07/17 00:45:15;;;;;;;26.98;14.15;;;;;;;24.52;59.61;98919.16;5050654;28;20053;-67
2021/07/17 00:47:41;;;;;;;26.35;13.98;;;;;;;24.50;59.98;98919.44;5050698;28;20052;-68
2021/07/17 00:50:13;;;;;;;19.95;13.35;;;;;;;24.49;60.00;98911.56;5049342;28;20041;-67
2021/07/17 00:52:39;;;;;;;21.85;12.23;;;;;;;24.47;60.12;98913.72;5049507;28;20174;-68
2021/07/17 00:55:06;;;;;;;19.10;12.35;;;;;;;24.44;60.05;98909.63;5050445;28;20124;-67
2021/07/17 00:57:33;;;;;;;19.23;12.30;;;;;;;24.45;59.86;98908.53;5050545;28;20041;-67
2021/07/17 01:00:08;;;;;;;20.55;12.43;;;;;;;24.43;60.21;98913.41;5033463;28;20045;-68
2021/07/17 01:02:37;;;;;;;29.60;12.65;;;;;;;24.40;60.48;98913.16;5049239;28;20056;-69
2021/07/17 01:05:04;;;;;;;21.55;13.10;;;;;;;24.39;60.54;98911.50;5032542;28;20060;-68
2021/07/17 01:07:45;;;;;;;20.45;12.40;;;;;;;24.40;60.67;98911.22;5034668;28;20048;-68
2021/07/17 01:10:13;;;;;;;23.80;14.27;;;;;;;24.40;60.62;98908.50;5032782;28;20505;-68
2021/07/17 01:12:39;;;;;;;24.40;13.25;;;;;;;24.37;60.46;98914.47;5052986;28;20045;-67
2021/07/17 01:15:05;;;;;;;28.48;12.90;;;;;;;24.40;60.58;98913.16;5053930;28;20489;-68
2021/07/17 01:17:32;;;;;;;24.60;12.75;;;;;;;24.39;60.88;98915.03;5052864;28;20121;-67
2021/07/17 01:19:58;;;;;;;24.88;12.80;;;;;;;24.39;60.97;98911.50;5052744;28;20488;-68
2021/07/17 01:22:24;;;;;;;23.40;13.70;;;;;;;24.38;60.74;98910.69;5054291;28;20044;-67
2021/07/17 01:25:06;;;;;;;27.00;14.65;;;;;;;24.36;60.80;98907.44;5037767;28;20063;-68
2021/07/17 01:27:32;;;;;;;23.58;12.85;;;;;;;24.35;60.49;98904.97;5054189;28;20534;-68
2021/07/17 01:30:11;;;;;;;18.00;11.55;;;;;;;24.37;60.62;98914.47;5053701;28;20135;-68
2021/07/17 01:32:36;;;;;;;18.17;11.80;;;;;;;24.35;60.99;98910.41;5053875;28;20507;-68
2021/07/17 01:35:03;;;;;;;23.77;11.73;;;;;;;24.37;60.96;98917.19;5035788;28;20069;-68
2021/07/17 01:37:28;;;;;;;23.65;12.13;;;;;;;24.36;61.10;98914.75;5054273;28;20127;-69
2021/07/17 01:39:54;;;;;;;18.77;11.18;;;;;;;24.27;60.93;98902.75;5036079;28;20511;-67
2021/07/17 01:42:20;;;;;;;21.48;11.75;;;;;;;24.37;61.21;98919.91;5053491;28;20037;-67
2021/07/17 01:44:46;;;;;;;22.88;13.38;;;;;;;24.38;61.19;98921.56;5053645;28;20045;-67
2021/07/17 01:47:15;;;;;;;18.55;11.85;;;;;;;24.38;61.21;98920.72;5053471;28;20052;-67
2021/07/17 01:49:41;;;;;;;29.30;14.00;;;;;;;24.32;61.24;98908.22;5052195;28;20432;-67
2021/07/17 01:52:08;;;;;;;18.52;12.45;;;;;;;24.41;60.99;98915.59;5052066;28;20489;-67
2021/07/17 01:54:35;;;;;;;21.55;13.20;;;;;;;24.42;61.39;98910.97;5052082;28;20041;-68
2021/07/17 01:57:02;;;;;;;25.60;11.95;;;;;;;24.43;61.40;98910.69;5035630;28;20509;-68
2021/07/17 01:59:27;;;;;;;31.50;12.43;;;;;;;24.44;61.21;98908.81;5053501;28;20060;-67
2021/07/17 02:01:53;;;;;;;24.73;13.20;;;;;;;24.46;60.95;98912.88;5051932;28;20045;-67
2021/07/17 02:04:19;;;;;;;26.90;12.52;;;;;;;24.48;61.04;98912.63;5052055;28;20041;-67
2021/07/17 02:06:44;;;;;;;22.02;11.52;;;;;;;24.48;60.86;98910.72;5053398;28;20061;-68
2021/07/17 02:09:10;;;;;;;20.33;12.30;;;;;;;24.45;61.06;98896.88;5051778;28;20045;-68
2021/07/17 02:11:36;;;;;;;22.23;10.95;;;;;;;24.53;60.71;98910.75;5051831;28;20420;-67
2021/07/17 02:14:02;;;;;;;20.02;11.95;;;;;;;24.58;60.74;98901.81;5051780;28;20090;-68
2021/07/17 02:16:27;;;;;;;21.58;12.10;;;;;;;24.60;60.51;98896.94;5053346;28;20059;-67
2021/07/17 02:18:53;;;;;;;21.13;11.50;;;;;;;24.62;60.62;98911.88;5035036;28;20139;-68
2021/07/17 02:21:20;;;;;;;19.65;11.70;;;;;;;24.64;60.39;98908.91;5051540;28;20447;-68
2021/07/17 02:23:46;;;;;;;25.00;12.70;;;;;;;24.68;60.46;98910.00;5051924;28;20045;-68
2021/07/17 02:26:12;;;;;;;29.52;11.45;;;;;;;24.60;60.17;98892.31;5052702;28;20106;-68
2021/07/17 02:28:39;;;;;;;19.25;11.07;;;;;;;24.70;60.39;98908.69;5051322;28;20083;-68
2021/07/17 02:31:05;;;;;;;18.48;12.40;;;;;;;24.72;60.47;98908.41;5051400;28;20489;-68
2021/07/17 02:33:33;;;;;;;23.60;11.27;;;;;;;24.76;60.10;98906.78;5035106;28;20127;-68
2021/07/17 02:35:59;;;;;;;21.58;11.98;;;;;;;24.79;60.08;98906.25;5052767;28;20079;-67
2021/07/17 02:38:25;;;;;;;18.35;11.52;;;;;;;24.80;60.06;98902.47;5052480;28;20072;-68
2021/07/17 02:40:50;;;;;;;21.40;11.80;;;;;;;24.85;59.66;98907.91;5052330;28;20094;-68
2021/07/17 02:43:16;;;;;;;17.08;11.27;;;;;;;24.77;59.78;98884.00;5052325;28;20135;-67
2021/07/17 02:45:42;;;;;;;18.17;12.43;;;;;;;24.92;59.49;98901.13;5052427;28;20049;-68
2021/07/17 02:48:07;;;;;;;25.48;12.55;;;;;;;24.96;59.61;98904.13;5050954;28;20072;-67
2021/07/17 02:50:33;;;;;;;24.88;12.60;;;;;;;25.00;59.42;98905.25;5034523;28;20049;-69
2021/07/17 02:52:59;;;;;;;22.77;11.38;;;;;;;25.03;59.24;98903.88;5052452;28;20523;-67
2021/07/17 02:55:25;;;;;;;19.13;11.82;;;;;;;24.99;58.83;98886.50;5034434;28;20527;-67
2021/07/17 02:57:51;;;;;;;23.00;11.95;;;;;;;25.10;58.54;98907.97;5052186;28;20043;-67
2021/07/17 03:00:16;;;;;;;18.77;11.63;;;;;;;25.15;58.54;98909.88;5050665;28;20135;-68
2021/07/17 03:02:42;;;;;;;18.95;11.50;;;;;;;25.20;58.71;98907.19;5051047;28;20040;-66
2021/07/17 03:05:09;;;;;;;22.75;12.48;;;;;;;25.17;58.52;98892.19;5050972;28;20124;-68
2021/07/17 03:07:35;;;;;;;22.17;12.05;;;;;;;25.28;58.31;98909.38;5050695;28;20071;-68
2021/07/17 03:10:00;;;;;;;24.00;12.18;;;;;;;25.33;58.19;98910.22;5052156;28;20037;-67
2021/07/17 03:12:26;;;;;;;19.48;12.40;;;;;;;25.38;58.21;98912.94;5051835;28;20523;-67
2021/07/17 03:14:52;;;;;;;24.70;15.80;;;;;;;25.42;58.38;98910.47;5051909;28;20386;-68
2021/07/17 03:17:18;;;;;;;18.13;12.00;;;;;;;25.46;58.33;98911.56;5050560;28;20095;-68
2021/07/17 03:19:43;;;;;;;27.67;14.63;;;;;;;25.51;58.54;98912.38;5051770;28;20041;-68
2021/07/17 03:22:09;;;;;;;16.20;12.95;;;;;;;25.58;58.39;98920.28;5033852;28;20051;-68
2021/07/17 03:24:35;;;;;;;18.02;13.50;;;;;;;25.52;58.18;98914.03;5051512;28;20037;-69
2021/07/17 03:27:01;;;;;;;20.08;12.43;;;;;;;25.54;58.64;98900.16;5051781;28;20083;-67
2021/07/17 03:29:26;;;;;;;18.95;11.73;;;;;;;25.69;58.11;98917.28;5051423;28;20040;-68
2021/07/17 03:31:52;;;;;;;19.23;12.23;;;;;;;25.71;58.26;98912.38;5050301;28;20127;-68
2021/07/17 03:34:18;;;;;;;20.90;12.60;;;;;;;25.77;58.10;98918.66;5033519;28;20049;-68
2021/07/17 03:36:44;;;;;;;22.20;13.32;;;;;;;25.81;57.86;98917.00;5051570;28;20040;-68
2021/07/17 03:39:10;;;;;;;28.15;13.77;;;;;;;25.86;57.60;98923.25;5033748;28;20140;-68
2021/07/17 03:41:37;;;;;;;20.63;11.93;;;;;;;25.92;57.68;98924.91;5051280;28;20069;-68
2021/07/17 03:44:04;;;;;;;21.58;12.38;;;;;;;25.98;57.09;98926.50;5051576;28;20041;-69
2021/07/17 03:46:30;;;;;;;19.45;12.15;;;;;;;26.04;57.25;98924.63;5051235;28;20044;-67
2021/07/17 03:48:56;;;;;;;20.50;13.23;;;;;;;26.07;57.08;98919.44;5051332;28;20088;-67
2021/07/17 03:51:22;;;;;;;19.83;12.32;;;;;;;26.10;57.19;98929.78;5051199;28;20542;-68
2021/07/17 03:53:48;;;;;;;26.38;13.45;;;;;;;26.16;57.41;98927.84;5049955;28;20048;-68
2021/07/17 03:56:14;;;;;;;24.17;12.20;;;;;;;26.22;57.96;98926.75;5033285;28;20417;-67
2021/07/17 03:58:40;;;;;;;21.80;12.38;;;;;;;26.25;57.97;98929.75;5051216;28;20053;-68
2021/07/17 04:01:05;;;;;;;18.23;11.90;;;;;;;26.26;57.82;98928.63;5050195;28;20052;-68
2021/07/17 04:03:33;;;;;;;25.85;13.00;;;;;;;26.34;56.90;98919.09;5049784;28;20071;-68
2021/07/17 04:05:59;;;;;;;29.13;13.95;;;;;;;26.31;57.49;98906.84;5049858;28;20515;-68
2021/07/17 04:08:25;;;;;;;21.13;12.38;;;;;;;26.46;57.14;98917.69;5049704;28;20048;-68
2021/07/17 04:10:50;;;;;;;22.95;12.18;;;;;;;26.56;56.91;98926.91;5033220;28;20041;-67
2021/07/17 04:13:16;;;;;;;21.55;12.63;;;;;;;26.62;57.06;98926.63;5050972;28;20055;-66
2021/07/17 04:15:42;;;;;;;25.25;12.68;;;;;;;26.68;56.46;98924.75;5049836;28;20401;-68
2021/07/17 04:18:08;;;;;;;17.08;10.27;;;;;;;26.69;55.18;98910.00;5033176;28;20492;-69
2021/07/17 04:20:34;;;;;;;16.75;11.43;;;;;;;26.80;55.14;98917.84;5049705;28;20084;-67
2021/07/17 04:23:00;;;;;;;18.60;10.82;;;;;;;26.85;53.71;98917.81;5050910;28;20045;-67
2021/07/17 04:25:26;;;;;;;17.13;10.52;;;;;;;27.01;53.43;98926.75;5050653;28;20045;-67
2021/07/17 04:27:51;;;;;;;18.05;10.05;;;;;;;27.11;53.14;98924.75;5049654;28;20052;-67
2021/07/17 04:30:17;;;;;;;22.63;10.68;;;;;;;27.21;52.50;98934.78;5049575;28;20517;-68
2021/07/17 04:32:43;;;;;;;17.48;10.00;;;;;;;27.29;52.10;98928.78;5049611;28;20052;-68
2021/07/17 04:35:09;;;;;;;17.25;11.23;;;;;;;27.38;52.13;98925.19;5050685;28;20049;-69
2021/07/17 04:37:35;;;;;;;16.48;10.23;;;;;;;27.45;51.82;98927.56;5050967;28;20125;-67
2021/07/17 04:40:01;;;;;;;15.40;11.20;;;;;;;27.44;51.75;98918.59;5049498;28;20132;-67
2021/07/17 04:42:26;;;;;;;22.33;11.00;;;;;;;27.54;51.03;98923.13;5050587;28;20052;-67
2021/07/17 04:44:52;;;;;;;19.50;10.57;;;;;;;27.62;50.97;98926.06;5033050;28;20560;-68
2021/07/17 04:47:18;;;;;;;19.80;10.23;;;;;;;27.63;50.75;98921.44;5053080;28;20512;-68
2021/07/17 04:49:44;;;;;;;20.38;10.30;;;;;;;27.80;50.34;98936.28;5054527;28;20135;-69
2021/07/17 04:52:09;;;;;;;12.40;10.90;;;;;;;27.86;50.36;98937.06;5053150;28;20139;-69
2021/07/17 04:54:35;;;;;;;17.52;9.73;;;;;;;27.92;50.38;98942.19;5054617;28;20041;-68
2021/07/17 04:57:01;;;;;;;20.42;10.20;;;;;;;27.99;50.24;98930.94;5036627;28;20485;-68
2021/07/17 04:59:26;;;;;;;15.18;9.90;;;;;;;28.07;50.03;98938.53;5054340;28;20052;-68
2021/07/17 05:01:52;;;;;;;17.73;10.25;;;;;;;28.15;49.77;98940.63;5053172;28;20413;-68
2021/07/17 05:04:18;;;;;;;16.83;9.25;;;;;;;28.16;49.64;98934.06;5036454;28;20040;-68
2021/07/17 05:06:43;;;;;;;14.68;10.48;;;;;;;28.28;49.04;98941.88;5053235;28;20372;-68
2021/07/17 05:09:09;;;;;;;12.18;9.23;;;;;;;28.37;48.79;98943.66;5054524;28;20485;-67
2021/07/17 05:11:36;;;;;;;17.45;9.98;;;;;;;28.45;49.59;98937.56;5053989;28;20045;-68
2021/07/17 05:14:02;;;;;;;19.90;10.18;;;;;;;28.49;49.41;98938.66;5053078;28;20524;-68
2021/07/17 05:16:28;;;;;;;14.38;9.50;;;;;;;28.52;49.13;98935.34;5052875;28;20036;-67
2021/07/17 05:18:54;;;;;;;21.30;9.57;;;;;;;28.55;48.51;98942.97;5054101;28;20103;-68
2021/07/17 05:21:19;;;;;;;13.00;9.82;;;;;;;28.59;48.13;98941.25;5052827;28;20052;-68
2021/07/17 05:23:45;;;;;;;13.85;9.60;;;;;;;28.67;47.56;98937.06;5052747;28;20052;-69
2021/07/17 05:26:12;;;;;;;14.57;9.80;;;;;;;28.76;47.08;98935.31;5053731;28;20497;-68
2021/07/17 05:28:38;;;;;;;15.07;9.85;;;;;;;28.86;47.09;98946.13;5054161;28;20056;-68
2021/07/17 05:31:04;;;;;;;15.38;9.38;;;;;;;28.93;47.13;98943.84;5035962;28;20103;-68
2021/07/17 05:33:29;;;;;;;17.10;9.13;;;;;;;29.00;46.33;98949.78;5052627;28;20037;-68
2021/07/17 05:35:55;;;;;;;10.45;8.57;;;;;;;29.08;45.82;98952.69;5052577;28;20045;-67
2021/07/17 05:38:21;;;;;;;12.15;8.88;;;;;;;29.14;45.13;98953.41;5052493;28;20404;-68
2021/07/17 05:40:46;;;;;;;11.65;8.65;;;;;;;29.22;44.27;98945.38;5053665;28;20477;-68
2021/07/17 05:43:12;;;;;;;16.05;8.98;;;;;;;29.34;44.90;98944.91;5052645;28;20139;-69
2021/07/17 05:45:38;;;;;;;12.25;9.20;;;;;;;29.38;45.24;98946.75;5052489;28;20107;-68
2021/07/17 05:48:04;;;;;;;14.88;9.40;;;;;;;29.39;44.69;98944.84;5052339;28;20394;-67
2021/07/17 05:50:31;;;;;;;15.27;9.63;;;;;;;29.44;44.82;98950.25;5052289;28;20079;-68
2021/07/17 05:52:57;;;;;;;15.43;9.90;;;;;;;29.45;44.89;98947.22;5035772;28;20048;-68
2021/07/17 05:55:23;;;;;;;13.25;9.65;;;;;;;29.47;44.74;98950.47;5053230;28;20044;-68
2021/07/17 05:57:48;;;;;;;12.80;8.75;;;;;;;29.51;44.72;98942.47;5052315;28;20044;-68
2021/07/17 06:00:19;;;;;;;15.52;8.88;;;;;;;29.54;44.81;98947.34;5053366;28;20145;-69
2021/07/17 06:02:46;;;;;;;14.02;9.23;;;;;;;29.54;44.75;98953.63;5053450;28;20119;-69
2021/07/17 06:05:12;;;;;;;15.63;8.90;;;;;;;29.65;44.77;98953.50;5035595;28;20041;-68
2021/07/17 06:07:37;;;;;;;15.90;9.35;;;;;;;29.69;44.17;98935.38;5051922;28;20047;-68
2021/07/17 06:10:04;;;;;;;12.88;9.00;;;;;;;29.91;43.70;98941.81;5051989;28;20041;-68
2021/07/17 06:12:30;;;;;;;12.57;9.15;;;;;;;30.08;43.34;98938.50;5051810;28;20052;-67
2021/07/17 06:14:56;;;;;;;14.13;9.15;;;;;;;30.21;42.94;98932.28;5035356;28;20041;-67
2021/07/17 06:17:21;;;;;;;20.65;9.43;;;;;;;30.35;42.82;98938.59;5052931;28;20041;-68
2021/07/17 06:19:47;;;;;;;16.30;9.85;;;;;;;30.47;42.26;98941.66;5052941;28;20492;-68
2021/07/17 06:22:13;;;;;;;16.95;9.40;;;;;;;30.56;42.31;98928.84;5053110;28;20045;-67
2021/07/17 06:24:39;;;;;;;17.67;9.98;;;;;;;30.74;41.97;98925.19;5034871;28;20144;-68
2021/07/17 06:27:05;;;;;;;13.77;9.30;;;;;;;30.96;41.17;98930.78;5052650;28;20107;-69
2021/07/17 06:29:32;;;;;;;17.33;9.48;;;;;;;31.10;40.66;98935.13;5052787;28;20134;-67
2021/07/17 06:31:57;;;;;;;20.13;10.00;;;;;;;31.24;40.63;98935.09;5052781;28;20137;-68
2021/07/17 06:34:23;;;;;;;13.43;8.68;;;;;;;31.26;39.87;98919.13;5018388;28;20497;-68
2021/07/17 06:36:49;;;;;;;11.57;8.00;;;;;;;31.41;38.40;98937.19;5018436;28;20048;-68
2021/07/17 06:39:15;;;;;;;10.02;7.95;;;;;;;31.43;38.79;98935.75;5052767;28;20138;-68
2021/07/17 06:41:41;;;;;;;10.60;7.72;;;;;;;31.34;38.76;98934.88;5051508;28;20115;-68
2021/07/17 06:44:07;;;;;;;9.85;7.93;;;;;;;31.28;38.24;98930.59;5052441;28;20045;-68
2021/07/17 06:46:33;;;;;;;9.98;7.95;;;;;;;31.40;38.03;98933.63;5052427;28;20037;-68
2021/07/17 06:48:58;;;;;;;11.85;7.95;;;;;;;31.39;37.87;98921.03;5051250;28;20123;-68
2021/07/17 06:51:24;;;;;;;11.27;8.63;;;;;;;31.55;37.65;98926.97;5052327;28;20044;-69
2021/07/17 06:53:50;;;;;;;15.10;8.98;;;;;;;31.67;38.02;98933.53;5050982;28;20044;-68
2021/07/17 06:56:16;;;;;;;15.18;9.10;;;;;;;31.76;37.59;98928.09;5052426;28;20041;-68
2021/07/17 06:58:42;;;;;;;12.43;8.60;;;;;;;31.87;38.22;98933.06;5052185;28;20492;-68
2021/07/17 07:01:08;;;;;;;13.60;8.27;;;;;;;31.90;38.48;98917.88;5052116;28;20047;-68
2021/07/17 07:03:33;;;;;;;10.52;8.68;;;;;;;32.09;38.13;98938.50;5052049;28;20131;-68
2021/07/17 07:05:59;;;;;;;13.75;8.88;;;;;;;32.14;37.27;98941.13;5050928;28;20408;-68
2021/07/17 07:08:25;;;;;;;16.08;8.82;;;;;;;32.32;37.04;98937.34;5051531;28;20044;-68
2021/07/17 07:10:51;;;;;;;13.40;9.23;;;;;;;32.53;36.38;98930.19;5050763;28;20507;-68
2021/07/17 07:13:17;;;;;;;10.40;9.27;;;;;;;32.71;36.47;98924.75;5050901;28;20052;-68
2021/07/17 07:15:44;;;;;;;11.70;8.48;;;;;;;32.94;35.71;98921.59;5017466;28;20428;-68
2021/07/17 07:18:11;;;;;;;14.57;7.90;;;;;;;33.01;34.91;98908.19;5033915;28;20041;-68
2021/07/17 07:20:37;;;;;;;12.40;8.38;;;;;;;33.36;34.54;98923.59;5033718;28;20052;-68
2021/07/17 07:23:03;;;;;;;18.83;8.48;;;;;;;33.61;33.11;98938.50;5051701;28;20047;-68
2021/07/17 07:25:29;;;;;;;10.85;8.07;;;;;;;33.94;32.79;98926.66;5050195;28;20128;-68
2021/07/17 07:27:55;;;;;;;11.02;8.50;;;;;;;34.33;31.83;98931.09;5033791;28;20048;-68
2021/07/17 07:30:21;;;;;;;12.15;7.88;;;;;;;34.87;30.58;98924.72;5050479;28;20052;-69
2021/07/17 07:32:49;;;;;;;12.25;8.15;;;;;;;35.45;29.12;98923.81;5034024;28;20045;-68
2021/07/17 07:35:16;;;;;;;10.50;8.30;;;;;;;36.02;28.57;98929.47;5033985;28;20409;-67
2021/07/17 07:37:42;;;;;;;17.63;8.80;;;;;;;36.74;28.25;98918.53;5033450;28;20044;-68
2021/07/17 07:40:08;;;;;;;14.43;7.78;;;;;;;37.53;26.88;98913.13;5033461;28;20523;-68
2021/07/17 07:42:34;;;;;;;14.75;7.60;;;;;;;38.79;25.32;98907.41;5050061;28;20064;-68
2021/07/17 07:44:59;;;;;;;11.98;7.65;;;;;;;40.10;23.03;98915.41;5050067;28;20142;-68
2021/07/17 07:47:25;;;;;;;15.95;7.22;;;;;;;41.31;21.48;98917.03;5051333;28;20052;-69
2021/07/17 07:49:54;;;;;;;8.43;6.72;;;;;;;42.82;19.72;98918.72;5051196;28;21232;-69
2021/07/17 07:52:20;;;;;;;10.50;6.75;;;;;;;44.54;17.56;98916.63;5050365;28;20048;-69
2021/07/17 07:54:46;;;;;;;13.57;6.30;;;;;;;45.86;15.93;98913.13;5051304;28;20044;-68
2021/07/17 07:57:12;;;;;;;11.88;6.07;;;;;;;46.60;15.00;98916.25;5050153;28;20083;-68
2021/07/17 07:59:38;;;;;;;9.27;5.50;;;;;;;46.39;14.56;98912.81;5033159;28;20055;-68
2021/07/17 08:02:03;;;;;;;12.75;5.50;;;;;;;46.65;14.21;98912.22;5049954;28;20040;-69
2021/07/17 08:04:29;;;;;;;6.82;5.47;;;;;;;47.32;13.57;98907.53;5033258;28;20124;-69
2021/07/17 08:06:55;;;;;;;16.98;5.05;;;;;;;48.20;12.70;98912.00;5049734;28;20045;-69
2021/07/17 08:09:21;;;;;;;8.20;5.05;;;;;;;48.15;12.67;98901.22;5049903;28;20119;-70
2021/07/17 08:11:47;;;;;;;14.18;5.47;;;;;;;48.71;12.27;98902.34;5033475;28;20076;-69
2021/07/17 08:14:13;;;;;;;10.40;5.05;;;;;;;49.19;11.57;98902.66;5051042;28;20053;-68
2021/07/17 08:16:39;;;;;;;7.78;4.45;;;;;;;49.16;11.01;98900.72;5049603;28;20055;-69
2021/07/17 08:19:04;;;;;;;13.55;4.70;;;;;;;48.37;11.72;98893.25;5050955;28;20135;-68
2021/07/17 08:21:30;;;;;;;11.40;4.90;;;;;;;48.56;11.44;98884.88;5053377;28;20452;-69
2021/07/17 08:23:56;;;;;;;7.78;4.55;;;;;;;49.13;11.09;98882.59;5054948;28;20404;-69
2021/07/17 08:26:22;;;;;;;6.13;4.53;;;;;;;49.95;10.39;98887.34;5053801;28;20049;-70
2021/07/17 08:28:47;;;;;;;6.72;4.30;;;;;;;49.46;10.61;98885.59;5053949;28;20095;-67
2021/07/17 08:31:13;;;;;;;7.78;4.28;;;;;;;49.70;10.57;98889.97;5054998;28;20045;-68
2021/07/17 08:33:39;;;;;;;5.38;3.65;;;;;;;50.71;9.26;98888.75;5053667;28;20041;-69
2021/07/17 08:36:05;;;;;;;6.60;3.42;;;;;;;50.47;9.21;98894.59;5054946;28;20087;-69
2021/07/17 08:38:30;;;;;;;12.35;3.65;;;;;;;49.08;9.59;98885.16;5054772;28;20044;-68
2021/07/17 08:40:57;;;;;;;8.35;3.60;;;;;;;49.72;9.28;98876.97;5053664;28;20119;-69
2021/07/17 08:43:23;;;;;;;6.55;3.20;;;;;;;50.81;8.79;98879.19;5036852;28;20049;-70
2021/07/17 08:45:49;;;;;;;4.60;3.42;;;;;;;52.36;7.33;98878.22;5054703;28;20536;-70
2021/07/17 08:48:18;;;;;;;7.20;3.10;;;;;;;53.38;6.34;98879.03;5053303;28;20041;-69
2021/07/17 08:50:44;;;;;;;6.75;2.80;;;;;;;51.79;7.84;98867.88;5054550;28;20059;-67
2021/07/17 08:53:09;;;;;;;5.45;2.80;;;;;;;48.94;8.91;98857.19;5053455;28;20045;-68
2021/07/17 08:55:35;;;;;;;10.10;3.20;;;;;;;47.22;10.06;98854.22;5053323;28;20504;-69
2021/07/17 08:58:01;;;;;;;9.48;3.50;;;;;;;48.05;10.11;98845.84;5054471;28;20405;-69
2021/07/17 09:00:36;;;;;;;7.35;3.60;;;;;;;49.50;8.91;98863.75;5054126;28;20080;-70
2021/07/17 09:03:07;;;;;;;7.60;3.42;;;;;;;51.08;7.93;98862.69;5054399;28;20099;-69
2021/07/17 09:05:36;;;;;;;7.05;3.30;;;;;;;51.53;8.08;98867.03;5052877;28;20051;-69
2021/07/17 09:08:03;;;;;;;6.47;3.10;;;;;;;52.08;7.32;98859.28;5053047;28;20143;-67
2021/07/17 09:10:38;;;;;;;6.47;3.30;;;;;;;51.53;7.34;98849.25;5054228;28;20052;-69
2021/07/17 09:13:20;;;;;;;3.30;3.00;;;;;;;52.27;7.43;98856.19;5036438;28;20057;-68
2021/07/17 09:15:54;;;;;;;5.75;3.20;;;;;;;53.09;6.69;98852.94;5052781;28;20489;-68
2021/07/17 09:18:23;;;;;;;5.07;3.13;;;;;;;53.84;6.32;98848.06;5052828;28;20504;-69
2021/07/17 09:20:58;;;;;;;9.52;3.17;;;;;;;54.25;6.00;98850.44;5052605;28;20048;-68
2021/07/17 09:23:25;;;;;;;5.78;3.30;;;;;;;53.75;6.65;98843.09;5053987;28;20442;-68
2021/07/17 09:25:51;;;;;;;4.57;3.00;;;;;;;53.19;6.86;98842.44;5036064;28;20563;-68
2021/07/17 09:28:18;;;;;;;3.88;2.92;;;;;;;52.52;6.43;98827.00;5052687;28;20049;-67
2021/07/17 09:30:45;;;;;;;7.53;3.43;;;;;;;52.47;7.09;98827.59;5052423;28;20417;-68
2021/07/17 09:33:12;;;;;;;5.43;3.67;;;;;;;52.71;7.43;98814.59;5052072;28;20465;-68
2021/07/17 09:35:39;;;;;;;4.75;3.58;;;;;;;52.38;7.34;98816.19;5052440;28;20114;-68
2021/07/17 09:38:06;;;;;;;6.60;3.88;;;;;;;51.63;7.94;98816.97;5052512;28;20124;-68
2021/07/17 09:40:42;;;;;;;4.10;3.70;;;;;;;52.40;7.99;98814.47;5053468;28;20060;-67
2021/07/17 09:43:08;;;;;;;8.07;3.90;;;;;;;53.49;7.06;98824.66;5052309;28;20052;-68
2021/07/17 09:45:36;;;;;;;10.23;3.63;;;;;;;54.11;6.74;98822.56;5035336;28;20056;-68
2021/07/17 09:48:20;;;;;;;6.93;4.00;;;;;;;54.26;6.58;98815.84;5052232;28;20071;-67
2021/07/17 09:50:47;;;;;;;7.45;4.30;;;;;;;55.06;6.33;98815.56;5053322;28;20041;-68
2021/07/17 09:53:52;;;;;;;5.88;3.75;;;;;;;55.26;6.03;98804.47;5053278;28;20094;-68
2021/07/17 09:56:21;;;;;;;5.05;3.58;;;;;;;54.60;6.46;98801.38;5052877;28;20048;-68
2021/07/17 09:58:47;;;;;;;6.90;3.78;;;;;;;54.01;6.51;98778.34;5053131;28;20132;-68
2021/07/17 10:01:32;;;;;;;4.47;3.53;;;;;;;55.07;5.55;98785.84;5053067;28;20493;-69
2021/07/17 10:04:11;;;;;;;6.00;3.67;;;;;;;54.82;6.14;98775.59;5053169;28;20055;-67
2021/07/17 10:06:50;;;;;;;9.20;3.50;;;;;;;55.53;5.41;98779.56;5053010;28;20076;-68
2021/07/17 10:09:16;;;;;;;4.18;3.78;;;;;;;56.33;5.51;98773.16;5053064;28;20049;-69
2021/07/17 10:11:50;;;;;;;8.20;3.90;;;;;;;56.87;5.11;98778.44;5052897;28;20049;-68
2021/07/17 10:14:17;;;;;;;4.45;3.42;;;;;;;57.33;4.90;98774.63;5051891;28;20045;-69
2021/07/17 10:16:43;;;;;;;6.70;3.20;;;;;;;57.50;4.45;98757.78;5052859;28;20055;-68
2021/07/17 10:19:09;;;;;;;7.15;3.70;;;;;;;57.53;4.74;98754.72;5051447;28;20051;-68
2021/07/17 10:21:36;;;;;;;6.30;3.20;;;;;;;57.76;4.85;98753.00;5051412;28;20131;-68
2021/07/17 10:24:02;;;;;;;7.22;3.78;;;;;;;57.94;4.82;98763.38;5035082;28;20075;-69
2021/07/17 10:26:28;;;;;;;7.35;3.67;;;;;;;57.96;5.00;98770.19;5052918;28;20052;-68
2021/07/17 10:28:59;;;;;;;6.35;3.40;;;;;;;58.09;4.80;98759.19;5051621;28;20465;-69
2021/07/17 10:31:25;;;;;;;5.03;3.40;;;;;;;57.53;4.87;98754.72;5035107;28;20091;-68
2021/07/17 10:33:51;;;;;;;5.07;3.20;;;;;;;56.99;4.67;98754.53;5051271;28;20045;-69
2021/07/17 10:36:17;;;;;;;4.75;3.00;;;;;;;57.03;4.39;98769.41;5051458;28;20037;-67
2021/07/17 10:38:44;;;;;;;6.20;3.30;;;;;;;56.74;4.60;98769.34;5034695;28;20480;-69
2021/07/17 10:41:13;;;;;;;7.07;3.53;;;;;;;56.47;4.66;98761.03;5034555;28;20488;-68
2021/07/17 10:43:40;;;;;;;3.30;2.60;;;;;;;56.05;4.76;98759.09;5051492;28;20037;-69
2021/07/17 10:46:26;;;;;;;5.22;3.08;;;;;;;54.77;4.98;98754.25;5034684;28;20045;-69
2021/07/17 10:48:53;;;;;;;4.47;2.97;;;;;;;53.79;5.77;98752.84;5051087;28;20135;-68
2021/07/17 10:51:29;;;;;;;4.32;3.10;;;;;;;51.91;6.83;98753.75;5051136;28;20052;-68
2021/07/17 10:53:58;;;;;;;5.15;3.42;;;;;;;49.93;8.74;98748.59;5051141;28;20052;-69
2021/07/17 10:56:26;;;;;;;;;;;;;;;48.18;10.31;98739.75;5052540;28;20072;-68
2021/07/17 10:58:52;;;;;;;;;;;;;;;46.87;11.38;98742.91;5052563;28;19921;-68
2021/07/17 11:01:19;;;;;;;6.13;4.85;;;;;;;46.73;11.55;98742.28;5050747;28;20299;-67
2021/07/17 11:03:45;;;;;;;5.70;5.10;;;;;;;46.99;11.34;98741.56;5051860;28;20049;-69
2021/07/17 11:06:24;;;;;;;9.43;5.20;;;;;;;46.93;12.14;98732.81;5050762;28;20056;-66
2021/07/17 11:08:51;;;;;;;10.32;5.88;;;;;;;46.76;12.30;98730.19;5052202;28;20439;-68
2021/07/17 11:11:29;;;;;;;10.40;5.53;;;;;;;46.37;12.55;98736.22;5052093;28;20040;-68
2021/07/17 11:13:56;;;;;;;8.65;6.22;;;;;;;45.80;13.35;98737.94;5051726;28;20049;-68
2021/07/17 11:16:43;;;;;;;7.83;5.97;;;;;;;45.07;14.15;98730.78;5017830;28;20068;-67
2021/07/17 11:19:26;;;;;;;10.68;6.03;;;;;;;43.97;15.13;98735.78;5050467;28;20049;-68
2021/07/17 11:21:56;;;;;;;8.70;6.40;;;;;;;43.13;15.90;98738.44;5050395;28;20186;-68
2021/07/17 11:24:26;;;;;;;7.82;6.50;;;;;;;42.27;16.62;98718.00;5051748;28;20036;-68
2021/07/17 11:27:11;;;;;;;9.75;6.68;;;;;;;41.44;17.78;98726.00;5051400;28;20553;-67